sensor_id;sensor_type;location;lat;lon;timestamp;pressure;altitude;pressure_sealevel;temperature;humidity
82033;BME280;71595;52.180;4.512;2024-02-23T00:01:02;98644.97;;;6.73;75.66
82033;BME280;71595;52.180;4.512;2024-02-23T00:03:27;98650.47;;;6.73;75.48
82033;BME280;71595;52.180;4.512;2024-02-23T00:05:52;98644.91;;;6.70;75.39
82033;BME280;71595;52.180;4.512;2024-02-23T00:08:18;98653.56;;;6.72;75.59
82033;BME280;71595;52.180;4.512;2024-02-23T00:10:44;98661.47;;;6.77;75.78
82033;BME280;71595;52.180;4.512;2024-02-23T00:13:09;98667.34;;;6.75;74.56
82033;BME280;71595;52.180;4.512;2024-02-23T00:15:35;98663.81;;;6.75;74.86
82033;BME280;71595;52.180;4.512;2024-02-23T00:18:00;98672.03;;;6.75;75.25
82033;BME280;71595;52.180;4.512;2024-02-23T00:20:28;98666.09;;;6.73;76.10
82033;BME280;71595;52.180;4.512;2024-02-23T00:22:53;98673.97;;;6.74;75.52
82033;BME280;71595;52.180;4.512;2024-02-23T00:25:19;98674.84;;;6.78;75.22
82033;BME280;71595;52.180;4.512;2024-02-23T00:27:44;98678.00;;;6.80;74.64
82033;BME280;71595;52.180;4.512;2024-02-23T00:30:10;98687.41;;;6.79;74.58
82033;BME280;71595;52.180;4.512;2024-02-23T00:32:35;98683.44;;;6.77;75.19
82033;BME280;71595;52.180;4.512;2024-02-23T00:35:01;98692.38;;;6.74;75.44
82033;BME280;71595;52.180;4.512;2024-02-23T00:37:26;98688.91;;;6.77;75.12
82033;BME280;71595;52.180;4.512;2024-02-23T00:39:51;98690.50;;;6.78;75.11
82033;BME280;71595;52.180;4.512;2024-02-23T00:42:16;98696.78;;;6.78;74.43
82033;BME280;71595;52.180;4.512;2024-02-23T00:44:42;98695.19;;;6.77;74.02
82033;BME280;71595;52.180;4.512;2024-02-23T00:47:07;98697.66;;;6.82;74.16
82033;BME280;71595;52.180;4.512;2024-02-23T00:49:32;98694.44;;;6.80;73.11
82033;BME280;71595;52.180;4.512;2024-02-23T00:51:58;98697.56;;;6.79;73.72
82033;BME280;71595;52.180;4.512;2024-02-23T00:54:23;98711.38;;;6.82;72.67
82033;BME280;71595;52.180;4.512;2024-02-23T00:56:48;98707.06;;;6.85;73.07
82033;BME280;71595;52.180;4.512;2024-02-23T00:59:26;98711.41;;;6.86;73.31
82033;BME280;71595;52.180;4.512;2024-02-23T01:01:51;98729.03;;;6.85;72.60
82033;BME280;71595;52.180;4.512;2024-02-23T01:04:17;98717.22;;;6.81;72.93
82033;BME280;71595;52.180;4.512;2024-02-23T01:06:42;98713.66;;;6.80;71.80
82033;BME280;71595;52.180;4.512;2024-02-23T01:09:07;98732.09;;;6.80;72.23
82033;BME280;71595;52.180;4.512;2024-02-23T01:11:33;98729.75;;;6.82;72.33
82033;BME280;71595;52.180;4.512;2024-02-23T01:13:58;98738.44;;;6.84;72.01
82033;BME280;71595;52.180;4.512;2024-02-23T01:16:23;98741.53;;;6.82;71.91
82033;BME280;71595;52.180;4.512;2024-02-23T01:18:49;98736.53;;;6.88;71.19
82033;BME280;71595;52.180;4.512;2024-02-23T01:21:14;98738.00;;;6.82;72.29
82033;BME280;71595;52.180;4.512;2024-02-23T01:23:39;98742.69;;;6.81;72.03
82033;BME280;71595;52.180;4.512;2024-02-23T01:26:04;98745.81;;;6.80;72.16
82033;BME280;71595;52.180;4.512;2024-02-23T01:28:30;98760.25;;;6.77;71.76
82033;BME280;71595;52.180;4.512;2024-02-23T01:30:55;98761.03;;;6.77;71.53
82033;BME280;71595;52.180;4.512;2024-02-23T01:33:21;98757.19;;;6.82;70.30
82033;BME280;71595;52.180;4.512;2024-02-23T01:39:08;98766.25;;;6.82;69.95
82033;BME280;71595;52.180;4.512;2024-02-23T01:41:33;98766.66;;;6.84;68.96
82033;BME280;71595;52.180;4.512;2024-02-23T01:43:58;98766.03;;;6.72;70.09
82033;BME280;71595;52.180;4.512;2024-02-23T01:46:24;98771.53;;;6.72;70.70
82033;BME280;71595;52.180;4.512;2024-02-23T01:48:49;98775.78;;;6.69;71.03
82033;BME280;71595;52.180;4.512;2024-02-23T01:51:15;98776.94;;;6.68;72.35
82033;BME280;71595;52.180;4.512;2024-02-23T01:53:40;98776.44;;;6.62;72.86
82033;BME280;71595;52.180;4.512;2024-02-23T01:56:06;98773.97;;;6.57;73.30
82033;BME280;71595;52.180;4.512;2024-02-23T01:58:32;98775.94;;;6.57;74.06
82033;BME280;71595;52.180;4.512;2024-02-23T02:00:58;98784.13;;;6.53;74.16
82033;BME280;71595;52.180;4.512;2024-02-23T02:03:23;98789.44;;;6.65;73.14
82033;BME280;71595;52.180;4.512;2024-02-23T02:05:49;98789.00;;;6.63;72.37
82033;BME280;71595;52.180;4.512;2024-02-23T02:08:16;98788.72;;;6.49;72.90
82033;BME280;71595;52.180;4.512;2024-02-23T02:10:42;98793.47;;;6.52;72.47
82033;BME280;71595;52.180;4.512;2024-02-23T02:13:08;98782.00;;;6.46;72.27
82033;BME280;71595;52.180;4.512;2024-02-23T02:15:33;98797.38;;;6.51;71.80
82033;BME280;71595;52.180;4.512;2024-02-23T02:17:59;98793.47;;;6.52;72.56
82033;BME280;71595;52.180;4.512;2024-02-23T02:20:25;98782.38;;;6.45;72.97
82033;BME280;71595;52.180;4.512;2024-02-23T02:22:53;98789.44;;;6.46;73.04
82033;BME280;71595;52.180;4.512;2024-02-23T02:25:18;98794.94;;;6.46;72.96
82033;BME280;71595;52.180;4.512;2024-02-23T02:27:44;98798.81;;;6.45;73.50
82033;BME280;71595;52.180;4.512;2024-02-23T02:30:11;98804.38;;;6.48;73.49
82033;BME280;71595;52.180;4.512;2024-02-23T02:32:37;98803.56;;;6.48;73.67
82033;BME280;71595;52.180;4.512;2024-02-23T02:35:02;98812.97;;;6.47;72.48
82033;BME280;71595;52.180;4.512;2024-02-23T02:37:28;98804.66;;;6.43;72.77
82033;BME280;71595;52.180;4.512;2024-02-23T02:39:53;98811.38;;;6.46;72.08
82033;BME280;71595;52.180;4.512;2024-02-23T02:42:18;98805.19;;;6.49;72.56
82033;BME280;71595;52.180;4.512;2024-02-23T02:44:44;98808.59;;;6.42;72.85
82033;BME280;71595;52.180;4.512;2024-02-23T02:47:09;98800.25;;;6.39;72.44
82033;BME280;71595;52.180;4.512;2024-02-23T02:49:34;98798.81;;;6.45;72.32
82033;BME280;71595;52.180;4.512;2024-02-23T02:52:00;98793.44;;;6.48;72.79
82033;BME280;71595;52.180;4.512;2024-02-23T02:54:25;98798.81;;;6.45;73.78
82033;BME280;71595;52.180;4.512;2024-02-23T02:56:50;98802.38;;;6.45;73.50
82033;BME280;71595;52.180;4.512;2024-02-23T02:59:19;98804.25;;;6.41;73.53
82033;BME280;71595;52.180;4.512;2024-02-23T03:01:44;98804.25;;;6.41;73.16
82033;BME280;71595;52.180;4.512;2024-02-23T03:04:11;98790.59;;;6.45;72.47
82033;BME280;71595;52.180;4.512;2024-02-23T03:06:36;98803.47;;;6.41;72.64
82033;BME280;71595;52.180;4.512;2024-02-23T03:09:01;98810.50;;;6.42;72.29
82033;BME280;71595;52.180;4.512;2024-02-23T03:11:28;98805.03;;;6.42;72.18
82033;BME280;71595;52.180;4.512;2024-02-23T03:13:59;98803.47;;;6.41;71.82
82033;BME280;71595;52.180;4.512;2024-02-23T03:16:24;98806.25;;;6.44;71.38
82033;BME280;71595;52.180;4.512;2024-02-23T03:18:52;98805.47;;;6.44;71.38
82033;BME280;71595;52.180;4.512;2024-02-23T03:21:19;98809.00;;;6.44;71.41
82033;BME280;71595;52.180;4.512;2024-02-23T03:23:44;98809.38;;;6.43;72.16
82033;BME280;71595;52.180;4.512;2024-02-23T03:26:10;98812.03;;;6.39;72.41
82033;BME280;71595;52.180;4.512;2024-02-23T03:28:35;98816.00;;;6.42;72.57
82033;BME280;71595;52.180;4.512;2024-02-23T03:31:01;98817.59;;;6.43;71.47
82033;BME280;71595;52.180;4.512;2024-02-23T03:33:26;98814.84;;;6.43;72.10
82033;BME280;71595;52.180;4.512;2024-02-23T03:35:52;98816.72;;;6.39;70.83
82033;BME280;71595;52.180;4.512;2024-02-23T03:38:17;98827.84;;;6.46;70.64
82033;BME280;71595;52.180;4.512;2024-02-23T03:40:42;98828.56;;;6.43;70.94
82033;BME280;71595;52.180;4.512;2024-02-23T03:43:08;98827.78;;;6.42;71.35
82033;BME280;71595;52.180;4.512;2024-02-23T03:45:33;98828.41;;;6.36;72.09
82033;BME280;71595;52.180;4.512;2024-02-23T03:47:59;98825.94;;;6.30;71.61
82033;BME280;71595;52.180;4.512;2024-02-23T03:50:25;98828.69;;;6.30;72.33
82033;BME280;71595;52.180;4.512;2024-02-23T03:52:50;98822.78;;;6.28;72.61
82033;BME280;71595;52.180;4.512;2024-02-23T03:55:15;98831.38;;;6.27;73.69
82033;BME280;71595;52.180;4.512;2024-02-23T03:57:41;98833.31;;;6.26;73.92
82033;BME280;71595;52.180;4.512;2024-02-23T04:00:07;98836.91;;;6.30;74.65
82033;BME280;71595;52.180;4.512;2024-02-23T04:02:33;98836.06;;;6.26;74.73
82033;BME280;71595;52.180;4.512;2024-02-23T04:04:58;98832.03;;;6.20;76.15
82033;BME280;71595;52.180;4.512;2024-02-23T04:07:24;98828.41;;;6.16;75.49
82033;BME280;71595;52.180;4.512;2024-02-23T04:09:49;98830.97;;;6.09;76.33
82033;BME280;71595;52.180;4.512;2024-02-23T04:12:18;98834.72;;;6.01;77.26
82033;BME280;71595;52.180;4.512;2024-02-23T04:14:44;98832.41;;;6.03;76.74
82033;BME280;71595;52.180;4.512;2024-02-23T04:17:10;98844.19;;;6.03;77.43
82033;BME280;71595;52.180;4.512;2024-02-23T04:19:36;98842.88;;;5.97;76.92
82033;BME280;71595;52.180;4.512;2024-02-23T04:22:02;98840.00;;;5.93;76.78
82033;BME280;71595;52.180;4.512;2024-02-23T04:24:27;98838.84;;;5.94;77.73
82033;BME280;71595;52.180;4.512;2024-02-23T04:26:52;98843.19;;;5.96;76.85
82033;BME280;71595;52.180;4.512;2024-02-23T04:29:18;98849.38;;;5.92;77.45
82033;BME280;71595;52.180;4.512;2024-02-23T04:31:43;98853.97;;;5.88;77.55
82033;BME280;71595;52.180;4.512;2024-02-23T04:34:08;98845.59;;;5.81;77.48
82033;BME280;71595;52.180;4.512;2024-02-23T04:36:34;98857.53;;;5.73;78.26
82033;BME280;71595;52.180;4.512;2024-02-23T04:38:59;98851.63;;;5.71;78.35
82033;BME280;71595;52.180;4.512;2024-02-23T04:41:24;98869.38;;;5.77;77.75
82033;BME280;71595;52.180;4.512;2024-02-23T04:43:50;98872.41;;;5.72;79.29
82033;BME280;71595;52.180;4.512;2024-02-23T04:46:15;98876.97;;;5.68;79.06
82033;BME280;71595;52.180;4.512;2024-02-23T04:48:40;98864.53;;;5.70;78.90
82033;BME280;71595;52.180;4.512;2024-02-23T04:51:07;98876.97;;;5.68;79.02
82033;BME280;71595;52.180;4.512;2024-02-23T04:53:37;98873.72;;;5.78;78.97
82033;BME280;71595;52.180;4.512;2024-02-23T04:56:04;98867.78;;;5.76;79.36
82033;BME280;71595;52.180;4.512;2024-02-23T04:58:29;98866.91;;;5.72;79.17
82033;BME280;71595;52.180;4.512;2024-02-23T05:00:55;98857.38;;;5.66;78.68
82033;BME280;71595;52.180;4.512;2024-02-23T05:03:20;98840.78;;;5.58;79.57
82033;BME280;71595;52.180;4.512;2024-02-23T05:05:46;98857.56;;;5.57;78.64
82033;BME280;71595;52.180;4.512;2024-02-23T05:08:11;98848.56;;;5.56;78.34
82033;BME280;71595;52.180;4.512;2024-02-23T05:10:37;98848.09;;;5.54;78.21
82033;BME280;71595;52.180;4.512;2024-02-23T05:13:02;98853.91;;;5.53;78.69
82033;BME280;71595;52.180;4.512;2024-02-23T05:15:27;98844.66;;;5.57;78.21
82033;BME280;71595;52.180;4.512;2024-02-23T05:17:53;98859.22;;;5.62;77.74
82033;BME280;71595;52.180;4.512;2024-02-23T05:20:18;98845.97;;;5.64;77.40
82033;BME280;71595;52.180;4.512;2024-02-23T05:22:44;98843.50;;;5.58;77.87
82033;BME280;71595;52.180;4.512;2024-02-23T05:25:09;98849.34;;;5.57;77.27
82033;BME280;71595;52.180;4.512;2024-02-23T05:27:35;98845.88;;;5.60;77.62
82033;BME280;71595;52.180;4.512;2024-02-23T05:30:00;98849.78;;;5.59;77.40
82033;BME280;71595;52.180;4.512;2024-02-23T05:32:26;98843.34;;;5.67;76.96
82033;BME280;71595;52.180;4.512;2024-02-23T05:34:51;98847.13;;;5.63;77.83
82033;BME280;71595;52.180;4.512;2024-02-23T05:37:18;98834.59;;;5.62;78.14
82033;BME280;71595;52.180;4.512;2024-02-23T05:39:44;98840.78;;;5.58;78.47
82033;BME280;71595;52.180;4.512;2024-02-23T05:42:13;98827.50;;;5.61;78.87
82033;BME280;71595;52.180;4.512;2024-02-23T05:44:39;98840.69;;;5.55;79.56
82033;BME280;71595;52.180;4.512;2024-02-23T05:47:05;98830.59;;;5.59;79.92
82033;BME280;71595;52.180;4.512;2024-02-23T05:49:33;98829.53;;;5.64;79.57
82033;BME280;71595;52.180;4.512;2024-02-23T05:52:00;98814.28;;;5.63;79.87
82033;BME280;71595;52.180;4.512;2024-02-23T05:54:25;98842.09;;;5.65;79.61
82033;BME280;71595;52.180;4.512;2024-02-23T05:56:51;98825.56;;;5.77;79.67
82033;BME280;71595;52.180;4.512;2024-02-23T05:59:16;98839.25;;;5.77;79.88
82033;BME280;71595;52.180;4.512;2024-02-23T06:01:41;98828.72;;;5.79;78.99
82033;BME280;71595;52.180;4.512;2024-02-23T06:04:10;98818.53;;;5.80;78.72
82033;BME280;71595;52.180;4.512;2024-02-23T06:06:35;98827.66;;;5.84;79.19
82033;BME280;71595;52.180;4.512;2024-02-23T06:12:23;98832.00;;;5.85;79.27
82033;BME280;71595;52.180;4.512;2024-02-23T06:14:50;98836.66;;;5.84;78.97
82033;BME280;71595;52.180;4.512;2024-02-23T06:17:16;98831.72;;;5.90;78.33
82033;BME280;71595;52.180;4.512;2024-02-23T06:19:41;98826.59;;;5.88;77.54
82033;BME280;71595;52.180;4.512;2024-02-23T06:22:06;98826.59;;;5.88;77.72
82033;BME280;71595;52.180;4.512;2024-02-23T06:24:33;98840.00;;;5.93;77.57
82033;BME280;71595;52.180;4.512;2024-02-23T06:26:58;98834.00;;;5.88;77.44
82033;BME280;71595;52.180;4.512;2024-02-23T06:29:24;98824.19;;;5.87;78.51
82033;BME280;71595;52.180;4.512;2024-02-23T06:31:50;98814.31;;;5.82;78.23
82033;BME280;71595;52.180;4.512;2024-02-23T06:34:15;98836.28;;;5.86;78.26
82033;BME280;71595;52.180;4.512;2024-02-23T06:36:47;98830.47;;;5.87;78.73
82033;BME280;71595;52.180;4.512;2024-02-23T06:39:13;98837.81;;;5.83;78.89
82033;BME280;71595;52.180;4.512;2024-02-23T06:41:38;98848.22;;;5.93;77.87
82033;BME280;71595;52.180;4.512;2024-02-23T06:44:04;98843.97;;;5.96;78.61
82033;BME280;71595;52.180;4.512;2024-02-23T06:46:30;98837.25;;;5.93;77.63
82033;BME280;71595;52.180;4.512;2024-02-23T06:48:55;98842.38;;;5.95;78.58
82033;BME280;71595;52.180;4.512;2024-02-23T06:51:21;98852.66;;;5.98;78.12
82033;BME280;71595;52.180;4.512;2024-02-23T06:53:46;98837.09;;;6.02;76.96
82033;BME280;71595;52.180;4.512;2024-02-23T06:56:12;98835.16;;;6.03;77.23
82033;BME280;71595;52.180;4.512;2024-02-23T06:58:37;98835.50;;;6.01;77.07
82033;BME280;71595;52.180;4.512;2024-02-23T07:01:04;98837.53;;;6.04;76.76
82033;BME280;71595;52.180;4.512;2024-02-23T07:03:32;98829.59;;;5.99;76.91
82033;BME280;71595;52.180;4.512;2024-02-23T07:05:57;98841.69;;;5.98;76.17
82033;BME280;71595;52.180;4.512;2024-02-23T07:08:22;98835.34;;;5.94;75.99
82033;BME280;71595;52.180;4.512;2024-02-23T07:10:48;98837.63;;;5.92;77.03
82033;BME280;71595;52.180;4.512;2024-02-23T07:13:13;98836.03;;;5.91;76.85
82033;BME280;71595;52.180;4.512;2024-02-23T07:15:38;98832.50;;;5.90;77.85
82033;BME280;71595;52.180;4.512;2024-02-23T07:18:04;98836.13;;;5.94;77.39
82033;BME280;71595;52.180;4.512;2024-02-23T07:20:29;98828.91;;;5.86;77.89
82033;BME280;71595;52.180;4.512;2024-02-23T07:22:55;98827.28;;;5.85;78.34
82033;BME280;71595;52.180;4.512;2024-02-23T07:25:20;98832.78;;;5.85;78.84
82033;BME280;71595;52.180;4.512;2024-02-23T07:27:49;98834.56;;;5.78;79.16
82033;BME280;71595;52.180;4.512;2024-02-23T07:30:15;98836.94;;;5.79;79.68
82033;BME280;71595;52.180;4.512;2024-02-23T07:32:47;98835.72;;;5.76;80.05
82033;BME280;71595;52.180;4.512;2024-02-23T07:35:12;98830.31;;;5.80;79.17
82033;BME280;71595;52.180;4.512;2024-02-23T07:37:38;98824.84;;;5.80;79.17
82033;BME280;71595;52.180;4.512;2024-02-23T07:40:04;98824.03;;;5.80;79.36
82033;BME280;71595;52.180;4.512;2024-02-23T07:42:33;98825.47;;;5.73;79.95
82033;BME280;71595;52.180;4.512;2024-02-23T07:45:02;98822.50;;;5.63;80.43
82033;BME280;71595;52.180;4.512;2024-02-23T07:47:54;98823.88;;;5.72;80.55
82033;BME280;71595;52.180;4.512;2024-02-23T07:50:19;98824.94;;;5.68;80.37
82033;BME280;71595;52.180;4.512;2024-02-23T07:52:45;98829.09;;;5.62;81.00
82033;BME280;71595;52.180;4.512;2024-02-23T07:55:10;98826.19;;;5.54;80.60
82033;BME280;71595;52.180;4.512;2024-02-23T07:57:35;98826.03;;;5.47;81.38
82033;BME280;71595;52.180;4.512;2024-02-23T08:00:01;98829.81;;;5.58;83.46
82033;BME280;71595;52.180;4.512;2024-02-23T08:02:27;98822.50;;;5.63;81.78
82033;BME280;71595;52.180;4.512;2024-02-23T08:04:52;98824.16;;;5.51;81.45
82033;BME280;71595;52.180;4.512;2024-02-23T08:07:17;98815.34;;;5.42;81.37
82033;BME280;71595;52.180;4.512;2024-02-23T08:09:43;98832.09;;;5.40;81.19
82033;BME280;71595;52.180;4.512;2024-02-23T08:12:09;98814.00;;;5.36;82.20
82033;BME280;71595;52.180;4.512;2024-02-23T08:14:36;98816.75;;;5.36;82.06
82033;BME280;71595;52.180;4.512;2024-02-23T08:17:01;98815.41;;;5.30;82.71
82033;BME280;71595;52.180;4.512;2024-02-23T08:19:27;98806.84;;;5.31;82.87
82033;BME280;71595;52.180;4.512;2024-02-23T08:21:52;98814.28;;;5.31;83.16
82033;BME280;71595;52.180;4.512;2024-02-23T08:24:18;98817.44;;;5.33;83.17
82033;BME280;71595;52.180;4.512;2024-02-23T08:26:43;98803.41;;;5.34;83.87
82033;BME280;71595;52.180;4.512;2024-02-23T08:29:08;98803.41;;;5.34;82.93
82033;BME280;71595;52.180;4.512;2024-02-23T08:31:34;98810.47;;;5.35;83.67
82033;BME280;71595;52.180;4.512;2024-02-23T08:33:59;98801.03;;;5.33;83.74
82033;BME280;71595;52.180;4.512;2024-02-23T08:36:24;98805.78;;;5.36;83.74
82033;BME280;71595;52.180;4.512;2024-02-23T08:38:50;98810.56;;;5.39;84.26
82033;BME280;71595;52.180;4.512;2024-02-23T08:41:15;98811.97;;;5.33;84.36
82033;BME280;71595;52.180;4.512;2024-02-23T08:43:41;98816.75;;;5.36;83.97
82033;BME280;71595;52.180;4.512;2024-02-23T08:46:06;98807.38;;;5.37;83.45
82033;BME280;71595;52.180;4.512;2024-02-23T08:48:32;98810.47;;;5.35;84.50
82033;BME280;71595;52.180;4.512;2024-02-23T08:50:57;98812.88;;;5.37;84.47
82033;BME280;71595;52.180;4.512;2024-02-23T08:53:22;98800.59;;;5.31;84.05
82033;BME280;71595;52.180;4.512;2024-02-23T08:55:48;98809.94;;;5.30;85.14
82033;BME280;71595;52.180;4.512;2024-02-23T08:58:13;98793.44;;;5.26;84.85
82033;BME280;71595;52.180;4.512;2024-02-23T09:00:38;98786.03;;;5.27;84.42
82033;BME280;71595;52.180;4.512;2024-02-23T09:03:04;98799.34;;;5.28;84.69
82033;BME280;71595;52.180;4.512;2024-02-23T09:05:29;98799.09;;;5.33;84.53
82033;BME280;71595;52.180;4.512;2024-02-23T09:07:55;98807.22;;;5.30;84.53
82033;BME280;71595;52.180;4.512;2024-02-23T09:10:20;98800.94;;;5.29;85.40
82033;BME280;71595;52.180;4.512;2024-02-23T09:12:45;98802.28;;;5.35;85.50
82033;BME280;71595;52.180;4.512;2024-02-23T09:15:11;98807.56;;;5.44;84.98
82033;BME280;71595;52.180;4.512;2024-02-23T09:17:37;98807.66;;;5.48;83.96
82033;BME280;71595;52.180;4.512;2024-02-23T09:20:02;98813.22;;;5.51;84.80
82033;BME280;71595;52.180;4.512;2024-02-23T09:22:28;98806.31;;;5.57;83.32
82033;BME280;71595;52.180;4.512;2024-02-23T09:24:53;98805.16;;;5.58;83.97
82033;BME280;71595;52.180;4.512;2024-02-23T09:27:22;98804.81;;;5.60;84.53
82033;BME280;71595;52.180;4.512;2024-02-23T09:29:47;98798.56;;;5.60;83.80
82033;BME280;71595;52.180;4.512;2024-02-23T09:32:12;98808.63;;;5.55;84.32
82033;BME280;71595;52.180;4.512;2024-02-23T09:34:39;98809.41;;;5.56;84.67
82033;BME280;71595;52.180;4.512;2024-02-23T09:37:04;98802.00;;;5.56;84.04
82033;BME280;71595;52.180;4.512;2024-02-23T09:39:30;98797.91;;;5.66;84.05
82033;BME280;71595;52.180;4.512;2024-02-23T09:41:56;98805.31;;;5.82;85.68
82033;BME280;71595;52.180;4.512;2024-02-23T09:44:27;98800.78;;;5.89;84.12
82033;BME280;71595;52.180;4.512;2024-02-23T09:46:57;98805.97;;;5.94;83.59
82033;BME280;71595;52.180;4.512;2024-02-23T09:49:23;98820.47;;;5.95;83.63
82033;BME280;71595;52.180;4.512;2024-02-23T09:51:48;98806.59;;;6.04;82.75
82033;BME280;71595;52.180;4.512;2024-02-23T09:54:13;98820.72;;;6.06;82.42
82033;BME280;71595;52.180;4.512;2024-02-23T09:56:39;98821.19;;;6.08;82.12
82033;BME280;71595;52.180;4.512;2024-02-23T09:59:04;98825.50;;;6.09;82.30
82033;BME280;71595;52.180;4.512;2024-02-23T10:01:31;98820.19;;;6.16;81.27
82033;BME280;71595;52.180;4.512;2024-02-23T10:04:00;98821.41;;;6.19;81.25
82033;BME280;71595;52.180;4.512;2024-02-23T10:06:25;98831.22;;;6.20;80.67
82033;BME280;71595;52.180;4.512;2024-02-23T10:08:51;98821.91;;;6.24;81.12
82033;BME280;71595;52.180;4.512;2024-02-23T10:11:24;98816.94;;;6.30;79.94
82033;BME280;71595;52.180;4.512;2024-02-23T10:13:50;98850.06;;;6.41;79.30
82033;BME280;71595;52.180;4.512;2024-02-23T10:16:17;98829.69;;;6.42;79.23
82033;BME280;71595;52.180;4.512;2024-02-23T10:18:46;98847.03;;;6.46;79.26
82033;BME280;71595;52.180;4.512;2024-02-23T10:21:12;98842.06;;;6.52;79.88
82033;BME280;71595;52.180;4.512;2024-02-23T10:23:37;98848.50;;;6.59;79.45
82033;BME280;71595;52.180;4.512;2024-02-23T10:26:05;98850.94;;;6.64;79.72
82033;BME280;71595;52.180;4.512;2024-02-23T10:28:30;98854.97;;;6.71;79.44
82033;BME280;71595;52.180;4.512;2024-02-23T10:30:56;98870.66;;;6.70;78.98
82033;BME280;71595;52.180;4.512;2024-02-23T10:33:23;98869.13;;;6.73;79.05
82033;BME280;71595;52.180;4.512;2024-02-23T10:35:54;98873.09;;;6.75;78.56
82033;BME280;71595;52.180;4.512;2024-02-23T10:38:22;98860.53;;;6.74;79.32
82033;BME280;71595;52.180;4.512;2024-02-23T10:40:50;98864.88;;;6.75;79.16
82033;BME280;71595;52.180;4.512;2024-02-23T10:43:19;98875.47;;;6.77;79.71
82033;BME280;71595;52.180;4.512;2024-02-23T10:45:46;98872.50;;;6.86;79.41
82033;BME280;71595;52.180;4.512;2024-02-23T10:48:11;98882.31;;;6.87;79.17
82033;BME280;71595;52.180;4.512;2024-02-23T10:50:37;98878.78;;;6.86;80.06
82033;BME280;71595;52.180;4.512;2024-02-23T10:53:07;98887.16;;;6.93;79.11
82033;BME280;71595;52.180;4.512;2024-02-23T10:55:36;98893.50;;;6.97;78.05
82033;BME280;71595;52.180;4.512;2024-02-23T10:58:02;98897.84;;;6.98;78.56
82033;BME280;71595;52.180;4.512;2024-02-23T11:00:29;98895.38;;;7.13;78.34
82033;BME280;71595;52.180;4.512;2024-02-23T11:02:54;98908.69;;;7.11;77.17
82033;BME280;71595;52.180;4.512;2024-02-23T11:05:20;98905.84;;;7.07;76.58
82033;BME280;71595;52.180;4.512;2024-02-23T11:07:51;98911.78;;;7.09;77.95
82033;BME280;71595;52.180;4.512;2024-02-23T11:10:22;98911.28;;;7.04;77.58
82033;BME280;71595;52.180;4.512;2024-02-23T11:12:59;98900.00;;;7.09;78.14
82033;BME280;71595;52.180;4.512;2024-02-23T11:15:29;98929.47;;;7.12;78.22
82033;BME280;71595;52.180;4.512;2024-02-23T11:17:54;98919.34;;;7.16;77.60
82033;BME280;71595;52.180;4.512;2024-02-23T11:20:20;98918.56;;;7.15;77.65
82033;BME280;71595;52.180;4.512;2024-02-23T11:22:53;98911.53;;;7.18;76.19
82033;BME280;71595;52.180;4.512;2024-02-23T11:25:19;98923.69;;;7.17;76.70
82033;BME280;71595;52.180;4.512;2024-02-23T11:27:49;98913.66;;;7.25;77.03
82033;BME280;71595;52.180;4.512;2024-02-23T11:30:16;98920.28;;;7.24;77.31
82033;BME280;71595;52.180;4.512;2024-02-23T11:32:46;98926.66;;;7.28;77.36
82033;BME280;71595;52.180;4.512;2024-02-23T11:35:19;98919.56;;;7.27;77.65
82033;BME280;71595;52.180;4.512;2024-02-23T11:40:14;98938.56;;;7.35;78.69
82033;BME280;71595;52.180;4.512;2024-02-23T11:42:42;98923.19;;;7.31;78.16
82033;BME280;71595;52.180;4.512;2024-02-23T11:45:10;98932.25;;;7.35;78.06
82033;BME280;71595;52.180;4.512;2024-02-23T11:47:37;98936.97;;;7.34;77.10
82033;BME280;71595;52.180;4.512;2024-02-23T11:50:04;98923.66;;;7.36;76.70
82033;BME280;71595;52.180;4.512;2024-02-23T11:52:32;98932.75;;;7.41;76.93
82033;BME280;71595;52.180;4.512;2024-02-23T11:54:57;98940.69;;;7.46;75.65
82033;BME280;71595;52.180;4.512;2024-02-23T11:57:22;98952.09;;;7.48;76.34
82033;BME280;71595;52.180;4.512;2024-02-23T11:59:50;98947.47;;;7.52;75.54
82033;BME280;71595;52.180;4.512;2024-02-23T12:02:16;98959.25;;;7.52;76.03
82033;BME280;71595;52.180;4.512;2024-02-23T12:04:41;98939.66;;;7.54;75.72
82033;BME280;71595;52.180;4.512;2024-02-23T12:07:07;98948.34;;;7.56;75.80
82033;BME280;71595;52.180;4.512;2024-02-23T12:09:33;98950.78;;;7.61;74.77
82033;BME280;71595;52.180;4.512;2024-02-23T12:11:58;98948.53;;;7.67;74.31
82033;BME280;71595;52.180;4.512;2024-02-23T12:14:24;98940.72;;;7.69;75.56
82033;BME280;71595;52.180;4.512;2024-02-23T12:16:51;98965.94;;;7.74;75.49
82033;BME280;71595;52.180;4.512;2024-02-23T12:19:16;98959.56;;;7.70;74.26
82033;BME280;71595;52.180;4.512;2024-02-23T12:21:44;98961.16;;;7.71;75.16
82033;BME280;71595;52.180;4.512;2024-02-23T12:24:10;98959.72;;;7.78;75.68
82033;BME280;71595;52.180;4.512;2024-02-23T12:26:35;98959.41;;;7.83;74.29
82033;BME280;71595;52.180;4.512;2024-02-23T12:29:02;98955.91;;;7.86;74.03
82033;BME280;71595;52.180;4.512;2024-02-23T12:31:28;98964.16;;;7.86;74.06
82033;BME280;71595;52.180;4.512;2024-02-23T12:33:57;98963.78;;;7.87;73.71
82033;BME280;71595;52.180;4.512;2024-02-23T12:36:22;98959.53;;;7.90;73.65
82033;BME280;71595;52.180;4.512;2024-02-23T12:38:48;98978.88;;;7.97;74.39
82033;BME280;71595;52.180;4.512;2024-02-23T12:41:13;98966.81;;;8.05;73.14
82033;BME280;71595;52.180;4.512;2024-02-23T12:43:39;98983.75;;;8.07;72.50
82033;BME280;71595;52.180;4.512;2024-02-23T12:46:04;98974.28;;;8.05;73.05
82033;BME280;71595;52.180;4.512;2024-02-23T12:48:29;98966.03;;;8.05;72.64
82033;BME280;71595;52.180;4.512;2024-02-23T12:50:56;98974.69;;;8.07;72.70
82033;BME280;71595;52.180;4.512;2024-02-23T12:55:57;98979.91;;;8.12;71.53
82033;BME280;71595;52.180;4.512;2024-02-23T12:58:22;98989.50;;;8.22;70.73
82033;BME280;71595;52.180;4.512;2024-02-23T13:00:48;98996.69;;;8.30;69.93
82033;BME280;71595;52.180;4.512;2024-02-23T13:03:13;98990.44;;;8.33;69.57
82033;BME280;71595;52.180;4.512;2024-02-23T13:05:38;98994.06;;;8.37;70.60
82033;BME280;71595;52.180;4.512;2024-02-23T13:08:05;98989.13;;;8.47;70.98
82033;BME280;71595;52.180;4.512;2024-02-23T13:10:30;98993.81;;;8.46;70.07
82033;BME280;71595;52.180;4.512;2024-02-23T13:12:56;98982.13;;;8.53;69.79
82033;BME280;71595;52.180;4.512;2024-02-23T13:15:21;98983.03;;;8.37;70.19